Terminal Aerodrome Forecast
Issued by NWS

Home | Current Version | Previous Version | Graphics & Text | Print | Product List | Glossary On
Versions: 1 2 3 4 5 6 7 8 9 10 11 12 13 14 15 16 17 18 19 20 21 22 23 24 25 26 27 28 29 30 31
014
FTUS43 KLOT 290304 AAA
TAFORD
TAF AMD
KORD 290304Z 2903/3006 04007KT P6SM OVC015
     FM290500 06006KT 3SM BR OVC012
      TEMPO 2908/2912 1SM BR OVC008
     FM291400 08012G18KT P6SM SCT025 BKN150
     FM292000 07014G22KT P6SM SCT015 BKN060
     FM300100 07010KT P6SM OVC040 PROB30 3003/3006 4SM -RA BKN030=

USA.gov is the U.S. government's official web portal to all federal, state and local government web resources and services.